Time;durP1;ratioP1;P1;durP2;ratioP2;P2;SDS_P1;SDS_P2;PMS_P1;PMS_P2;Temp;Humidity;BMP_temperature;BMP_pressure;BME280_temperature;BME280_humidity;BME280_pressure;Samples;Min_cycle;Max_cycle;Signal;HPM_P1;HPM_P2
2023/12/01 00:00:07;;;;;;;0.20;0.20;;;;;;;3.11;100.00;94259.88;5036941;28;20204;-73
2023/12/01 00:02:34;;;;;;;0.98;0.60;;;;;;;3.22;100.00;94283.53;5039881;28;20239;-74
2023/12/01 00:05:01;;;;;;;0.73;0.73;;;;;;;2.85;100.00;94257.56;5038865;28;20697;-73
2023/12/01 00:07:28;;;;;;;0.25;0.25;;;;;;;3.13;100.00;94257.72;5038189;28;20683;-73
2023/12/01 00:09:54;;;;;;;0.50;0.50;;;;;;;3.17;100.00;94264.88;5039483;28;20204;-72
2023/12/01 00:12:21;;;;;;;0.43;0.43;;;;;;;3.11;100.00;94267.91;5038223;28;20290;-73
2023/12/01 00:14:49;;;;;;;4.28;0.73;;;;;;;3.38;100.00;94238.59;5040124;28;20261;-74
2023/12/01 00:17:17;;;;;;;1.00;0.57;;;;;;;3.64;100.00;94267.63;5039287;28;20230;-74
2023/12/01 00:19:43;;;;;;;0.88;0.82;;;;;;;3.39;100.00;94261.59;5040331;28;20619;-73
2023/12/01 00:22:10;;;;;;;0.50;0.50;;;;;;;3.10;100.00;94258.31;5039576;28;20784;-73
2023/12/01 00:24:37;;;;;;;0.20;0.20;;;;;;;3.03;100.00;94268.56;5038340;28;20556;-74
2023/12/01 00:27:04;;;;;;;0.45;0.45;;;;;;;3.31;100.00;94248.06;5044094;28;20230;-75
2023/12/01 00:29:31;;;;;;;0.65;0.40;;;;;;;2.89;100.00;94238.25;5043691;28;20207;-74
2023/12/01 00:31:59;;;;;;;0.40;0.40;;;;;;;2.90;100.00;94237.16;5041148;28;20204;-76
2023/12/01 00:34:26;;;;;;;0.55;0.55;;;;;;;2.89;100.00;94267.66;5042254;28;20212;-75
2023/12/01 00:36:55;;;;;;;0.30;0.30;;;;;;;3.00;100.00;94221.00;5043093;28;20265;-75
2023/12/01 00:39:21;;;;;;;1.38;1.27;;;;;;;2.77;100.00;94260.88;5044423;28;20266;-77
2023/12/01 00:41:48;;;;;;;0.30;0.30;;;;;;;2.75;100.00;94220.25;5041010;28;20205;-75
2023/12/01 00:44:16;;;;;;;1.00;1.00;;;;;;;2.88;100.00;94256.19;5046409;28;20230;-75
2023/12/01 00:46:43;;;;;;;0.20;0.20;;;;;;;3.08;100.00;94249.75;5045312;28;20645;-75
2023/12/01 00:49:11;;;;;;;0.35;0.35;;;;;;;2.96;100.00;94238.69;5045479;28;20298;-78
2023/12/01 00:51:41;;;;;;;0.50;0.50;;;;;;;2.62;100.00;94258.38;5040948;28;20211;-78
2023/12/01 00:54:08;;;;;;;0.85;0.85;;;;;;;2.87;100.00;94253.81;5045667;28;20215;-78
2023/12/01 00:56:35;;;;;;;2.88;2.72;;;;;;;2.62;100.00;94253.03;5043470;28;20211;-73
2023/12/01 00:59:02;;;;;;;0.20;0.20;;;;;;;2.73;100.00;94251.06;5049248;28;20290;-74
2023/12/01 01:01:30;;;;;;;0.20;0.20;;;;;;;2.84;100.00;94258.66;5048961;28;20235;-74
2023/12/01 01:03:57;;;;;;;0.65;0.65;;;;;;;2.92;100.00;94245.69;5044101;28;20255;-76
2023/12/01 01:06:25;;;;;;;0.50;0.50;;;;;;;3.20;100.00;94247.44;5045578;28;20211;-74
2023/12/01 01:08:52;;;;;;;0.20;0.20;;;;;;;3.34;100.00;94242.16;5041819;28;20235;-76
2023/12/01 01:11:19;;;;;;;0.20;0.20;;;;;;;2.98;100.00;94229.31;5045403;28;20207;-79
2023/12/01 01:13:46;;;;;;;0.60;0.60;;;;;;;2.97;100.00;94211.66;5040276;28;20299;-77
2023/12/01 01:16:13;;;;;;;0.20;0.20;;;;;;;2.94;100.00;94219.47;5036146;28;20201;-77
2023/12/01 01:18:39;;;;;;;0.25;0.25;;;;;;;3.11;100.00;94223.22;5047266;28;20203;-77
2023/12/01 01:21:06;;;;;;;0.20;0.20;;;;;;;3.03;100.00;94239.91;5039232;28;20532;-77
2023/12/01 01:23:35;;;;;;;1.27;0.70;;;;;;;2.97;100.00;94238.41;5043206;28;20204;-76
2023/12/01 01:26:02;;;;;;;0.30;0.30;;;;;;;2.92;100.00;94214.41;5041587;28;20245;-76
2023/12/01 01:28:29;;;;;;;1.50;1.40;;;;;;;2.78;100.00;94230.38;5045380;28;20296;-77
2023/12/01 01:30:57;;;;;;;7.25;4.07;;;;;;;3.09;100.00;94224.59;5041211;28;20652;-79
2023/12/01 01:33:24;;;;;;;7.13;3.75;;;;;;;2.91;100.00;94217.38;5038561;28;20276;-78
2023/12/01 01:35:51;;;;;;;6.13;2.83;;;;;;;3.08;100.00;94214.97;5048140;28;20203;-75
2023/12/01 01:38:18;;;;;;;8.38;3.67;;;;;;;3.07;100.00;94200.00;5040255;28;20207;-75
2023/12/01 01:40:46;;;;;;;2.95;2.42;;;;;;;3.00;100.00;94216.44;5040053;28;20209;-77
2023/12/01 01:43:20;;;;;;;7.38;3.10;;;;;;;3.19;100.00;94208.38;5047586;28;20230;-76
2023/12/01 01:45:47;;;;;;;5.95;3.10;;;;;;;2.91;100.00;94217.38;5045073;28;20258;-76
2023/12/01 01:48:14;;;;;;;4.47;3.35;;;;;;;2.81;100.00;94197.72;5044036;28;20591;-75
2023/12/01 01:50:41;;;;;;;4.22;2.28;;;;;;;3.00;100.00;94202.28;5040211;28;20200;-76
2023/12/01 01:53:08;;;;;;;7.15;3.72;;;;;;;3.06;100.00;94203.75;5041178;28;20204;-76
2023/12/01 01:55:34;;;;;;;8.18;4.13;;;;;;;3.29;100.00;94189.47;5046437;28;20200;-77
2023/12/01 01:58:04;;;;;;;6.82;3.70;;;;;;;3.29;100.00;94192.16;5041165;28;20222;-77
2023/12/01 02:00:30;;;;;;;4.85;3.05;;;;;;;3.24;100.00;94216.34;5045787;28;20222;-75
2023/12/01 02:02:57;;;;;;;9.25;3.95;;;;;;;3.27;100.00;94207.72;5043357;28;20561;-76
2023/12/01 02:05:24;;;;;;;2.33;0.70;;;;;;;2.90;100.00;94178.31;5043842;28;20211;-76
2023/12/01 02:07:52;;;;;;;0.22;0.22;;;;;;;3.07;100.00;94206.16;5041032;28;20228;-75
2023/12/01 02:10:19;;;;;;;0.20;0.20;;;;;;;3.04;100.00;94216.63;5041545;28;20199;-73
2023/12/01 02:12:46;;;;;;;0.20;0.20;;;;;;;2.69;100.00;94202.69;5039550;28;20299;-78
2023/12/01 02:15:14;;;;;;;0.20;0.20;;;;;;;3.10;100.00;94212.81;5044415;28;20222;-73
2023/12/01 02:17:41;;;;;;;0.30;0.30;;;;;;;2.96;100.00;94161.13;5040726;28;20207;-75
2023/12/01 02:20:14;;;;;;;0.20;0.20;;;;;;;3.04;100.00;94214.75;5039191;28;20207;-77
2023/12/01 02:22:45;;;;;;;0.22;0.22;;;;;;;3.03;100.00;94177.59;5043663;28;20222;-75
2023/12/01 02:25:12;;;;;;;0.20;0.20;;;;;;;3.07;100.00;94178.59;5043851;28;20200;-75
2023/12/01 02:27:39;;;;;;;0.20;0.20;;;;;;;3.00;100.00;94172.84;5042107;28;20250;-79
2023/12/01 02:30:10;;;;;;;0.30;0.30;;;;;;;3.01;100.00;94206.50;5044120;28;20208;-78
2023/12/01 02:32:39;;;;;;;0.38;0.38;;;;;;;2.85;100.00;94185.38;5041635;28;20195;-79
2023/12/01 02:35:09;;;;;;;0.20;0.20;;;;;;;2.82;100.00;94204.66;5042230;28;20196;-80
2023/12/01 02:37:36;;;;;;;0.20;0.20;;;;;;;3.12;100.00;94197.28;5045060;28;20228;-77
2023/12/01 02:40:14;;;;;;;0.20;0.20;;;;;;;3.09;100.00;94203.19;5039358;28;20203;-76
2023/12/01 02:42:46;;;;;;;0.50;0.50;;;;;;;2.99;100.00;94166.69;5043000;28;20434;-77
2023/12/01 02:45:12;;;;;;;0.40;0.40;;;;;;;2.97;100.00;94216.22;5046187;28;20573;-77
2023/12/01 02:47:39;;;;;;;2.25;2.05;;;;;;;2.92;100.00;94176.16;5044065;28;20309;-76
2023/12/01 02:50:09;;;;;;;0.30;0.30;;;;;;;3.07;100.00;94200.00;5043371;28;20231;-77
2023/12/01 02:52:36;;;;;;;0.20;0.20;;;;;;;3.11;100.00;94201.03;5042666;28;20219;-76
2023/12/01 02:55:07;;;;;;;0.47;0.47;;;;;;;2.96;100.00;94163.81;5040962;28;20208;-76
2023/12/01 02:57:34;;;;;;;0.25;0.25;;;;;;;3.00;100.00;94196.91;5041708;28;20188;-77
2023/12/01 03:00:01;;;;;;;0.52;0.52;;;;;;;2.95;100.00;94171.03;5046046;28;20204;-77
2023/12/01 03:02:28;;;;;;;2.05;0.85;;;;;;;3.14;100.00;94179.81;5043687;28;20314;-77
2023/12/01 03:04:55;;;;;;;0.30;0.30;;;;;;;3.27;100.00;94172.16;5044484;28;20222;-77
2023/12/01 03:07:22;;;;;;;2.55;0.88;;;;;;;3.26;100.00;94166.00;5047159;28;20635;-77
2023/12/01 03:09:48;;;;;;;0.20;0.20;;;;;;;3.43;100.00;94209.06;5046728;28;20634;-76
2023/12/01 03:12:17;;;;;;;0.30;0.30;;;;;;;3.60;100.00;94175.59;5047639;28;20675;-77
2023/12/01 03:14:44;;;;;;;0.63;0.63;;;;;;;3.66;100.00;94185.13;5040300;28;20204;-76
2023/12/01 03:17:10;;;;;;;0.40;0.40;;;;;;;3.51;100.00;94195.00;5047002;28;20219;-76
2023/12/01 03:19:37;;;;;;;0.85;0.70;;;;;;;3.53;100.00;94171.44;5044512;28;20203;-77
2023/12/01 03:22:04;;;;;;;0.40;0.40;;;;;;;3.61;100.00;94179.84;5043069;28;20207;-76
2023/12/01 03:24:31;;;;;;;0.20;0.20;;;;;;;3.84;100.00;94198.44;5041499;28;20214;-74
2023/12/01 03:26:57;;;;;;;0.32;0.32;;;;;;;3.98;100.00;94211.84;5042952;28;20544;-76
2023/12/01 03:29:25;;;;;;;0.20;0.20;;;;;;;4.00;100.00;94158.75;5042095;28;20696;-75
2023/12/01 03:31:52;;;;;;;0.28;0.28;;;;;;;4.04;100.00;94173.16;5043081;28;20325;-75
2023/12/01 03:34:19;;;;;;;0.20;0.20;;;;;;;4.14;100.00;94181.00;5039881;28;20245;-76
2023/12/01 03:36:46;;;;;;;0.20;0.20;;;;;;;4.03;100.00;94138.63;5047418;28;20613;-76
2023/12/01 03:39:13;;;;;;;0.20;0.20;;;;;;;4.55;100.00;94185.53;5038027;28;20192;-78
2023/12/01 03:41:39;;;;;;;0.20;0.20;;;;;;;4.32;100.00;94160.53;5043324;28;20212;-78
2023/12/01 03:44:06;;;;;;;0.20;0.20;;;;;;;4.58;100.00;94117.88;5040838;28;20208;-79
2023/12/01 03:46:34;;;;;;;0.20;0.20;;;;;;;4.94;100.00;94153.53;5042399;28;20200;-79
2023/12/01 03:49:01;;;;;;;0.20;0.20;;;;;;;4.96;100.00;94169.34;5042304;28;20231;-81
2023/12/01 03:51:28;;;;;;;0.98;0.90;;;;;;;5.11;100.00;94160.13;5042223;28;20280;-79
2023/12/01 03:53:55;;;;;;;0.40;0.40;;;;;;;5.32;100.00;94163.94;5043327;28;20203;-78
2023/12/01 03:56:22;;;;;;;0.40;0.40;;;;;;;5.22;100.00;94170.31;5044301;28;20204;-80
2023/12/01 03:58:49;;;;;;;0.20;0.20;;;;;;;5.39;100.00;94172.34;5043664;28;20199;-75
2023/12/01 04:01:16;;;;;;;2.92;0.93;;;;;;;5.48;100.00;94159.75;5042934;28;20294;-73
2023/12/01 04:03:44;;;;;;;0.20;0.20;;;;;;;5.70;100.00;94137.44;5043339;28;20207;-80
2023/12/01 04:06:11;;;;;;;0.30;0.30;;;;;;;5.86;100.00;94180.84;5031581;28;20258;-80
2023/12/01 04:08:38;;;;;;;0.20;0.20;;;;;;;5.80;100.00;94144.44;5041896;28;20794;-80
2023/12/01 04:11:06;;;;;;;0.20;0.20;;;;;;;6.11;100.00;94156.00;5044782;28;20634;-81
2023/12/01 04:13:33;;;;;;;0.20;0.20;;;;;;;6.24;100.00;94175.81;5045970;28;20208;-79
2023/12/01 04:16:00;;;;;;;0.60;0.60;;;;;;;7.18;100.00;94150.16;5046215;28;20211;-81
2023/12/01 04:18:28;;;;;;;0.30;0.30;;;;;;;6.83;100.00;94155.53;5046514;28;20204;-80
2023/12/01 04:20:57;;;;;;;0.68;0.68;;;;;;;6.45;100.00;94138.38;5047739;28;20279;-79
2023/12/01 04:23:24;;;;;;;0.20;0.20;;;;;;;6.47;100.00;94136.16;5046029;28;20318;-78
2023/12/01 04:25:51;;;;;;;0.20;0.20;;;;;;;6.67;99.83;94157.91;5051177;28;20678;-79
2023/12/01 04:28:18;;;;;;;0.20;0.20;;;;;;;6.42;100.00;94151.34;5044769;28;20277;-80
2023/12/01 04:30:45;;;;;;;0.20;0.20;;;;;;;6.47;100.00;94173.81;5049210;28;20716;-79
2023/12/01 04:33:13;;;;;;;0.20;0.20;;;;;;;6.27;100.00;94143.72;5048794;28;20216;-80
2023/12/01 04:35:40;;;;;;;0.20;0.20;;;;;;;6.29;100.00;94138.81;5046431;28;20633;-80
2023/12/01 04:38:09;;;;;;;0.25;0.25;;;;;;;6.35;100.00;94126.00;5029405;28;20232;-79
2023/12/01 04:40:37;;;;;;;0.77;0.77;;;;;;;6.21;100.00;94165.69;5042756;28;20231;-79
2023/12/01 04:43:04;;;;;;;0.40;0.40;;;;;;;6.42;100.00;94078.69;5046400;28;20199;-79
2023/12/01 04:45:33;;;;;;;0.68;0.68;;;;;;;6.65;100.00;94148.56;5047156;28;20200;-79
2023/12/01 04:47:59;;;;;;;0.20;0.20;;;;;;;7.00;99.38;94171.69;5054099;28;20553;-77
2023/12/01 04:50:29;;;;;;;0.30;0.30;;;;;;;7.00;98.63;94107.06;5053280;28;20253;-77
2023/12/01 04:52:57;;;;;;;0.20;0.20;;;;;;;6.89;99.46;94153.47;5053533;28;20220;-79
2023/12/01 04:55:27;;;;;;;0.40;0.40;;;;;;;6.82;99.21;94116.28;5053617;28;20269;-79
2023/12/01 04:57:55;;;;;;;0.70;0.70;;;;;;;6.84;99.57;94115.94;5052863;28;20211;-80
2023/12/01 05:00:25;;;;;;;0.28;0.28;;;;;;;6.87;99.38;94137.63;5053630;28;20548;-78
2023/12/01 05:02:54;;;;;;;0.30;0.30;;;;;;;6.97;98.46;94121.16;5053154;28;20672;-78
2023/12/01 05:05:22;;;;;;;0.30;0.30;;;;;;;7.06;97.94;94138.13;5052830;28;20242;-79
2023/12/01 05:07:52;;;;;;;0.30;0.30;;;;;;;6.88;98.64;94093.47;5053075;28;20261;-78
2023/12/01 05:10:19;;;;;;;0.32;0.32;;;;;;;6.72;99.02;94148.88;5052887;28;20296;-77
2023/12/01 05:12:50;;;;;;;0.40;0.40;;;;;;;6.81;99.26;94113.91;5052686;28;20212;-78
2023/12/01 05:15:18;;;;;;;0.20;0.20;;;;;;;6.73;99.57;94162.00;5052964;28;20586;-79
2023/12/01 05:17:47;;;;;;;0.52;0.52;;;;;;;6.60;99.69;94119.09;5053171;28;20211;-80
2023/12/01 05:20:18;;;;;;;0.28;0.28;;;;;;;6.58;100.00;94126.69;5052566;28;20691;-79
2023/12/01 05:22:49;;;;;;;0.30;0.30;;;;;;;6.61;100.00;94163.72;5052824;28;20215;-79
2023/12/01 05:25:17;;;;;;;0.85;0.85;;;;;;;6.35;100.00;94148.31;5052946;28;20722;-79
2023/12/01 05:27:44;;;;;;;0.68;0.68;;;;;;;6.41;100.00;94128.25;5052789;28;20204;-79
2023/12/01 05:30:14;;;;;;;0.30;0.30;;;;;;;6.30;100.00;94148.47;5051427;28;20239;-78
2023/12/01 05:32:43;;;;;;;0.45;0.45;;;;;;;6.11;100.00;94123.75;5049940;28;20207;-80
2023/12/01 05:35:12;;;;;;;0.30;0.30;;;;;;;5.91;100.00;94151.16;5051718;28;20204;-80
2023/12/01 05:37:40;;;;;;;0.63;0.63;;;;;;;6.20;100.00;94100.34;5049493;28;20232;-81
2023/12/01 05:40:10;;;;;;;0.20;0.20;;;;;;;6.50;100.00;94155.16;5046451;28;20200;-79
2023/12/01 05:42:37;;;;;;;0.30;0.30;;;;;;;6.43;100.00;94155.63;5044473;28;20234;-79
2023/12/01 05:45:09;;;;;;;0.52;0.52;;;;;;;6.43;100.00;94104.50;5040636;28;20199;-78
2023/12/01 05:47:43;;;;;;;0.20;0.20;;;;;;;6.74;100.00;94146.66;5047123;28;20211;-79
2023/12/01 05:50:17;;;;;;;0.20;0.20;;;;;;;6.92;100.00;94132.09;5052385;28;20222;-79
2023/12/01 05:52:46;;;;;;;0.35;0.35;;;;;;;6.77;100.00;94156.78;5052388;28;20203;-80
2023/12/01 05:55:18;;;;;;;2.50;1.48;;;;;;;6.89;100.00;94132.72;5051571;28;20307;-80
2023/12/01 05:57:46;;;;;;;0.20;0.20;;;;;;;6.87;100.00;94140.31;5052339;28;20207;-79
2023/12/01 06:00:15;;;;;;;0.20;0.20;;;;;;;6.98;100.00;94141.59;5051210;28;20207;-80
2023/12/01 06:02:44;;;;;;;0.40;0.30;;;;;;;6.94;100.00;94129.09;5048465;28;20730;-80
2023/12/01 06:05:12;;;;;;;0.20;0.20;;;;;;;6.85;100.00;94147.94;5044350;28;20285;-79
2023/12/01 06:07:43;;;;;;;0.20;0.20;;;;;;;6.60;100.00;94108.31;5048673;28;20230;-78
2023/12/01 06:10:10;;;;;;;0.28;0.28;;;;;;;6.57;100.00;94162.75;5045990;28;20224;-79
2023/12/01 06:12:38;;;;;;;0.20;0.20;;;;;;;6.64;100.00;94146.97;5046069;28;20254;-79
2023/12/01 06:15:07;;;;;;;0.55;0.50;;;;;;;6.60;100.00;94121.78;5049522;28;20299;-78
2023/12/01 06:17:34;;;;;;;0.25;0.25;;;;;;;6.67;100.00;94147.13;5052033;28;20552;-79
2023/12/01 06:20:02;;;;;;;0.20;0.20;;;;;;;7.08;100.00;94160.16;5051131;28;20454;-79
2023/12/01 06:22:29;;;;;;;0.20;0.20;;;;;;;6.63;100.00;94107.69;5052208;28;20294;-79
2023/12/01 06:24:56;;;;;;;0.52;0.52;;;;;;;6.94;100.00;94150.63;5051854;28;20211;-79
2023/12/01 06:27:24;;;;;;;0.30;0.30;;;;;;;6.84;100.00;94132.09;5051225;28;20221;-80
2023/12/01 06:29:51;;;;;;;0.20;0.20;;;;;;;6.88;100.00;94152.69;5051337;28;20331;-80
2023/12/01 06:32:18;;;;;;;1.10;0.95;;;;;;;6.95;100.00;94144.16;5050325;28;20257;-80
2023/12/01 06:34:44;;;;;;;0.20;0.20;;;;;;;6.95;100.00;94142.25;5052207;28;20241;-81
2023/12/01 06:37:13;;;;;;;0.50;0.50;;;;;;;6.94;100.00;94145.25;5051292;28;20277;-80
2023/12/01 06:39:39;;;;;;;0.85;0.85;;;;;;;6.88;100.00;94128.47;5051525;28;20203;-81
2023/12/01 06:42:06;;;;;;;0.50;0.50;;;;;;;6.90;100.00;94145.09;5051115;28;20207;-79
2023/12/01 06:44:34;;;;;;;0.55;0.55;;;;;;;7.02;100.00;94152.53;5051301;28;20210;-78
2023/12/01 06:47:02;;;;;;;0.30;0.30;;;;;;;6.66;100.00;94115.94;5048398;28;20588;-79
2023/12/01 06:49:29;;;;;;;1.08;0.88;;;;;;;6.53;100.00;94161.81;5051021;28;20672;-79
2023/12/01 06:51:59;;;;;;;1.65;0.60;;;;;;;6.46;100.00;94113.06;5052329;28;20215;-79
2023/12/01 06:54:28;;;;;;;0.20;0.20;;;;;;;6.85;100.00;94147.94;5052907;28;20208;-78
2023/12/01 06:56:56;;;;;;;0.68;0.68;;;;;;;6.89;100.00;94148.88;5047350;28;20257;-77
2023/12/01 06:59:23;;;;;;;0.40;0.40;;;;;;;6.86;100.00;94160.28;5050583;28;20604;-76
2023/12/01 07:01:49;;;;;;;0.20;0.20;;;;;;;7.09;100.00;94144.78;5050245;28;20262;-76
2023/12/01 07:04:16;;;;;;;0.68;0.68;;;;;;;7.36;100.00;94167.91;5050261;28;20211;-80
2023/12/01 07:06:46;;;;;;;0.30;0.30;;;;;;;7.26;100.00;94168.22;5033184;28;20219;-80
2023/12/01 07:09:17;;;;;;;0.20;0.20;;;;;;;7.53;100.00;94170.56;5050058;28;20235;-80
2023/12/01 07:11:47;;;;;;;0.28;0.28;;;;;;;7.88;100.00;94162.41;5050991;28;20211;-80
2023/12/01 07:14:14;;;;;;;2.72;1.30;;;;;;;7.79;100.00;94176.69;5050043;28;20242;-79
2023/12/01 07:16:42;;;;;;;0.30;0.30;;;;;;;7.94;99.00;94155.72;5049699;28;20211;-81
2023/12/01 07:19:09;;;;;;;0.40;0.40;;;;;;;8.09;98.03;94147.91;5050100;28;20291;-81
2023/12/01 07:21:35;;;;;;;0.20;0.20;;;;;;;7.65;97.35;94143.78;5050569;28;20211;-80
2023/12/01 07:24:04;;;;;;;7.13;1.95;;;;;;;7.08;100.00;94122.44;5052623;28;20249;-82
2023/12/01 07:26:33;;;;;;;0.43;0.40;;;;;;;7.10;100.00;94170.59;5050543;28;20251;-82
2023/12/01 07:29:04;;;;;;;0.60;0.60;;;;;;;6.98;100.00;94136.22;5050718;28;20233;-78
2023/12/01 07:31:31;;;;;;;0.75;0.60;;;;;;;7.31;100.00;94157.28;5049563;28;20253;-81
2023/12/01 07:33:58;;;;;;;0.80;0.80;;;;;;;7.21;100.00;94095.66;5051451;28;20203;-80
2023/12/01 07:36:25;;;;;;;0.47;0.47;;;;;;;7.82;99.41;94116.75;5050486;28;20214;-80
2023/12/01 07:38:52;;;;;;;2.17;1.45;;;;;;;7.89;98.66;94143.22;5044053;28;20207;-80
2023/12/01 07:41:19;;;;;;;0.30;0.30;;;;;;;7.79;98.98;94128.16;5045585;28;20203;-80
2023/12/01 07:43:45;;;;;;;0.50;0.50;;;;;;;8.16;98.55;94171.69;5050869;28;20215;-79
2023/12/01 07:46:14;;;;;;;1.13;1.02;;;;;;;8.13;97.32;94094.09;5049483;28;20215;-79
2023/12/01 07:48:40;;;;;;;0.80;0.55;;;;;;;8.42;96.47;94158.13;5050122;28;20203;-79
2023/12/01 07:51:08;;;;;;;0.40;0.40;;;;;;;8.40;95.54;94147.63;5050236;28;20199;-79
2023/12/01 07:53:35;;;;;;;3.70;0.80;;;;;;;8.39;95.46;94156.84;5051739;28;20639;-79
2023/12/01 07:56:02;;;;;;;0.63;0.50;;;;;;;8.26;95.83;94147.03;5054021;28;20264;-80
2023/12/01 07:58:29;;;;;;;2.47;2.20;;;;;;;8.73;96.23;94133.50;5054368;28;20207;-80
2023/12/01 08:00:57;;;;;;;2.08;0.55;;;;;;;8.68;94.77;94171.47;5053270;28;20251;-80
2023/12/01 08:03:26;;;;;;;0.70;0.70;;;;;;;8.61;95.01;94141.50;5054030;28;20208;-80
2023/12/01 08:05:52;;;;;;;0.20;0.20;;;;;;;8.71;93.88;94136.50;5054386;28;20265;-79
2023/12/01 08:08:19;;;;;;;0.65;0.65;;;;;;;9.15;93.29;94172.91;5054268;28;20235;-82
2023/12/01 08:10:46;;;;;;;0.43;0.43;;;;;;;8.97;91.52;94149.03;5054464;28;20597;-81
2023/12/01 08:13:13;;;;;;;0.30;0.30;;;;;;;9.11;93.03;94182.78;5054046;28;20615;-78
2023/12/01 08:15:40;;;;;;;0.28;0.28;;;;;;;9.20;91.18;94169.22;5053703;28;20204;-79
2023/12/01 08:18:07;;;;;;;0.40;0.40;;;;;;;9.45;90.48;94160.09;5053786;28;20265;-79
2023/12/01 08:20:35;;;;;;;1.20;0.80;;;;;;;9.23;90.58;94147.72;5054480;28;20203;-80
2023/12/01 08:23:02;;;;;;;0.63;0.63;;;;;;;9.25;91.36;94145.50;5053869;28;20211;-80
2023/12/01 08:25:29;;;;;;;0.50;0.50;;;;;;;9.30;91.56;94143.69;5054109;28;20203;-80
2023/12/01 08:27:56;;;;;;;0.30;0.30;;;;;;;9.70;90.61;94165.63;5053696;28;20381;-80
2023/12/01 08:30:23;;;;;;;0.80;0.80;;;;;;;9.55;89.81;94181.34;5053216;28;20309;-80
2023/12/01 08:32:51;;;;;;;1.20;0.90;;;;;;;9.46;89.79;94198.72;5053961;28;20211;-80
2023/12/01 08:35:21;;;;;;;0.80;0.50;;;;;;;9.91;89.80;94191.47;5052751;28;20247;-80
2023/12/01 08:37:51;;;;;;;1.08;0.98;;;;;;;9.97;88.09;94160.41;5053477;28;20607;-82
2023/12/01 08:40:18;;;;;;;1.20;1.10;;;;;;;9.92;90.04;94179.53;5053459;28;20270;-80
2023/12/01 08:42:44;;;;;;;0.30;0.30;;;;;;;9.86;89.14;94163.84;5053377;28;20721;-80
2023/12/01 08:45:11;;;;;;;0.25;0.25;;;;;;;9.98;88.71;94161.94;5053186;28;20212;-79
2023/12/01 08:47:39;;;;;;;0.75;0.75;;;;;;;10.04;88.28;94134.69;5053399;28;20207;-80
2023/12/01 08:50:10;;;;;;;2.38;0.63;;;;;;;10.33;88.36;94172.44;5053654;28;20232;-80
2023/12/01 08:52:37;;;;;;;0.30;0.30;;;;;;;10.17;87.23;94114.63;5053493;28;20204;-80
2023/12/01 08:55:06;;;;;;;0.20;0.20;;;;;;;10.52;87.66;94158.34;5053168;28;20257;-78
2023/12/01 08:57:33;;;;;;;0.60;0.60;;;;;;;10.48;87.35;94147.41;5053156;28;20303;-80
2023/12/01 09:00:00;;;;;;;0.55;0.55;;;;;;;10.67;87.12;94165.78;5053428;28;20203;-80
2023/12/01 09:02:27;;;;;;;0.50;0.50;;;;;;;10.16;87.89;94123.88;5052592;28;20777;-80
2023/12/01 09:04:54;;;;;;;0.77;0.40;;;;;;;10.42;87.99;94121.66;5050667;28;20215;-80
2023/12/01 09:07:21;;;;;;;0.30;0.30;;;;;;;10.79;86.09;94086.44;5052389;28;20212;-79
2023/12/01 09:09:48;;;;;;;0.77;0.77;;;;;;;11.13;85.53;94091.31;5052419;28;20238;-79
2023/12/01 09:12:16;;;;;;;0.20;0.20;;;;;;;11.59;83.66;94097.22;5052426;28;20212;-82
2023/12/01 09:14:43;;;;;;;0.40;0.40;;;;;;;11.58;82.24;94079.38;5052421;28;20536;-80
2023/12/01 09:17:10;;;;;;;0.45;0.45;;;;;;;11.60;81.69;94093.38;5052915;28;20299;-80
2023/12/01 09:19:36;;;;;;;0.20;0.20;;;;;;;11.71;82.09;94072.75;5052890;28;20626;-79
2023/12/01 09:22:04;;;;;;;0.20;0.20;;;;;;;11.91;81.66;94090.72;5052340;28;20261;-79
2023/12/01 09:24:30;;;;;;;0.30;0.30;;;;;;;11.81;81.74;94066.84;5052895;28;20550;-79
2023/12/01 09:26:57;;;;;;;0.25;0.25;;;;;;;12.14;82.57;94098.28;5052981;28;20668;-78
2023/12/01 09:29:26;;;;;;;0.30;0.30;;;;;;;12.19;81.46;94087.16;5052494;28;20211;-80
2023/12/01 09:31:53;;;;;;;2.17;0.82;;;;;;;12.50;79.51;94108.88;5052444;28;20215;-80
2023/12/01 09:34:20;;;;;;;0.73;0.73;;;;;;;12.48;79.12;94105.72;5052681;28;20632;-79
2023/12/01 09:36:47;;;;;;;0.30;0.30;;;;;;;12.60;78.85;94134.72;5052695;28;20668;-80
2023/12/01 09:39:15;;;;;;;0.20;0.20;;;;;;;12.36;79.34;94101.19;5051924;28;20208;-78
2023/12/01 09:41:43;;;;;;;0.82;0.80;;;;;;;12.33;80.31;94098.38;5052631;28;20207;-81
2023/12/01 09:44:10;;;;;;;1.65;1.27;;;;;;;12.41;80.00;94143.59;5051873;28;20208;-80
2023/12/01 09:46:40;;;;;;;0.40;0.40;;;;;;;12.50;79.37;94129.81;5052189;28;20222;-81
2023/12/01 09:49:07;;;;;;;0.50;0.50;;;;;;;12.25;79.87;94130.00;5051717;28;20212;-80
2023/12/01 09:51:36;;;;;;;13.05;1.23;;;;;;;12.48;80.28;94137.53;5052123;28;20338;-80
2023/12/01 09:54:03;;;;;;;0.40;0.40;;;;;;;12.29;80.14;94102.94;5052155;28;20219;-81
2023/12/01 09:56:31;;;;;;;0.70;0.70;;;;;;;12.57;80.89;94130.00;5052597;28;20618;-78
2023/12/01 09:58:59;;;;;;;0.45;0.45;;;;;;;12.60;80.76;94124.63;5051881;28;20302;-77
2023/12/01 10:01:26;;;;;;;0.30;0.30;;;;;;;12.77;79.39;94102.53;5051795;28;20242;-78
2023/12/01 10:03:54;;;;;;;0.30;0.30;;;;;;;12.79;79.09;94094.81;5051831;28;20254;-76
2023/12/01 10:06:22;;;;;;;0.30;0.30;;;;;;;12.93;78.51;94098.97;5051693;28;20239;-78
2023/12/01 10:08:50;;;;;;;0.40;0.40;;;;;;;13.24;77.74;94103.56;5051868;28;20243;-77
2023/12/01 10:11:21;;;;;;;1.27;1.15;;;;;;;13.45;76.90;94110.22;5051679;28;20310;-79
2023/12/01 10:13:49;;;;;;;0.40;0.40;;;;;;;13.53;76.47;94106.50;5051748;28;20246;-79
2023/12/01 10:16:16;;;;;;;3.65;1.33;;;;;;;13.75;76.22;94098.75;5051270;28;20295;-77
2023/12/01 10:18:56;;;;;;;2.55;1.50;;;;;;;14.30;75.26;94110.25;5051319;28;20280;-79
2023/12/01 10:21:40;;;;;;;0.57;0.57;;;;;;;14.05;74.77;94068.97;5051801;28;20328;-79
2023/12/01 10:24:13;;;;;;;0.38;0.38;;;;;;;14.92;73.88;94076.97;5049194;28;20199;-78
2023/12/01 10:26:42;;;;;;;0.50;0.50;;;;;;;14.54;72.59;94044.47;5051865;28;20668;-78
2023/12/01 10:29:23;;;;;;;0.47;0.47;;;;;;;14.91;71.83;94067.22;5046218;28;20278;-79
2023/12/01 10:31:51;;;;;;;1.20;1.10;;;;;;;14.97;71.41;94050.53;5053460;28;20215;-77
2023/12/01 10:34:20;;;;;;;0.30;0.30;;;;;;;15.12;71.79;94074.13;5053535;28;20295;-80
2023/12/01 10:36:48;;;;;;;0.30;0.30;;;;;;;15.27;71.45;94070.44;5052600;28;20238;-78
2023/12/01 10:39:17;;;;;;;1.08;1.05;;;;;;;15.24;70.17;94041.16;5051942;28;20207;-80
2023/12/01 10:41:45;;;;;;;0.20;0.20;;;;;;;15.57;69.05;94038.47;5033165;28;20282;-78
2023/12/01 10:44:16;;;;;;;0.40;0.40;;;;;;;15.47;69.47;94047.28;5050969;28;20231;-78
2023/12/01 10:46:45;;;;;;;0.30;0.30;;;;;;;15.34;69.03;94043.22;5051457;28;20235;-78
2023/12/01 10:49:14;;;;;;;0.55;0.55;;;;;;;15.15;70.35;94021.56;5050663;28;20215;-79
2023/12/01 10:51:43;;;;;;;1.35;1.15;;;;;;;15.27;70.24;94034.97;5052785;28;20235;-78
2023/12/01 10:54:14;;;;;;;0.60;0.60;;;;;;;15.13;70.74;94045.69;5052099;28;20211;-78
2023/12/01 10:56:59;;;;;;;0.25;0.25;;;;;;;15.15;70.75;94040.66;5052762;28;20211;-80
2023/12/01 10:59:27;;;;;;;0.28;0.25;;;;;;;15.55;70.31;94065.34;5050165;28;20648;-80
2023/12/01 11:01:56;;;;;;;2.88;1.58;;;;;;;15.48;69.89;94056.25;5049733;28;20327;-80
2023/12/01 11:04:26;;;;;;;2.22;1.63;;;;;;;15.00;70.45;94056.06;5050365;28;20215;-80
2023/12/01 11:07:16;;;;;;;2.50;1.85;;;;;;;14.97;71.79;94040.44;5050735;28;20204;-79
2023/12/01 11:09:57;;;;;;;2.55;1.42;;;;;;;15.01;71.50;94044.00;5050436;28;20579;-80
2023/12/01 11:12:30;;;;;;;2.72;1.63;;;;;;;15.45;71.06;94043.34;5049558;28;20211;-79
2023/12/01 11:15:05;;;;;;;3.20;2.03;;;;;;;15.41;70.52;94026.16;5050019;28;20210;-79
2023/12/01 11:17:33;;;;;;;3.45;1.52;;;;;;;15.30;70.49;94004.22;5049965;28;20290;-79
2023/12/01 11:20:00;;;;;;;3.05;2.17;;;;;;;15.40;71.50;94019.91;5049480;28;20281;-79
2023/12/01 11:22:37;;;;;;;3.25;2.17;;;;;;;15.51;70.91;94017.28;5049782;28;20208;-76
2023/12/01 11:25:05;;;;;;;4.15;2.03;;;;;;;15.97;69.62;94036.94;5050225;28;20277;-78
2023/12/01 11:27:34;;;;;;;3.75;1.52;;;;;;;15.72;69.91;94022.22;5047907;28;20218;-77
2023/12/01 11:30:06;;;;;;;4.07;2.78;;;;;;;15.86;69.31;94027.81;5049342;28;20203;-74
2023/12/01 11:32:34;;;;;;;4.57;2.28;;;;;;;15.29;71.07;93997.19;5049771;28;20203;-77
2023/12/01 11:35:06;;;;;;;3.13;1.85;;;;;;;15.51;71.52;94028.22;5050010;28;20219;-77
2023/12/01 11:38:05;;;;;;;2.92;1.83;;;;;;;15.42;70.73;94006.69;5049359;28;20284;-77